Time;durP1;ratioP1;P1;durP2;ratioP2;P2;SDS_P1;SDS_P2;PMS_P1;PMS_P2;Temp;Humidity;BMP_temperature;BMP_pressure;BME280_temperature;BME280_humidity;BME280_pressure;Samples;Min_cycle;Max_cycle;Signal;HPM_P1;HPM_P2
2022/04/15 00:00:07;;;;;;;3.90;2.00;;;;;;;7.94;79.29;102350.72;2071560;28;36013;-64
2022/04/15 00:01:12;;;;;;;4.88;2.50;;;;;;;7.94;79.37;102348.03;2071297;28;20035;-65
2022/04/15 00:02:14;;;;;;;3.63;1.80;;;;;;;7.95;79.33;102354.25;2071541;28;20042;-64
2022/04/15 00:03:16;;;;;;;3.47;2.13;;;;;;;7.93;79.74;102348.94;2070905;28;43697;-65
2022/04/15 00:04:18;;;;;;;3.30;1.90;;;;;;;7.95;79.22;102352.53;2070611;28;45629;-65
2022/04/15 00:05:36;;;;;;;4.30;2.22;;;;;;;7.92;79.78;102349.81;2070299;28;45897;-64
2022/04/15 00:06:38;;;;;;;5.45;2.20;;;;;;;7.91;80.22;102344.44;2070588;28;44903;-65
2022/04/15 00:07:40;;;;;;;3.25;2.05;;;;;;;7.92;79.98;102341.81;2070953;28;46257;-65
2022/04/15 00:08:42;;;;;;;4.43;2.40;;;;;;;7.90;79.98;102346.22;2070996;28;43369;-64
2022/04/15 00:09:44;;;;;;;3.45;2.10;;;;;;;7.91;80.29;102344.44;2070546;28;44060;-64
2022/04/15 00:10:46;;;;;;;3.78;2.63;;;;;;;7.91;80.03;102348.00;2071086;28;44883;-65
2022/04/15 00:11:47;;;;;;;5.32;2.50;;;;;;;7.89;80.02;102355.09;2071338;28;42874;-65
2022/04/15 00:12:49;;;;;;;6.00;2.70;;;;;;;7.89;80.11;102354.22;2070994;28;43710;-64
2022/04/15 00:13:51;;;;;;;4.30;2.25;;;;;;;7.90;79.92;102362.22;2071032;28;44795;-64
2022/04/15 00:14:54;;;;;;;5.65;2.33;;;;;;;7.91;79.90;102352.44;2070036;28;43759;-64
2022/04/15 00:15:56;;;;;;;7.13;2.33;;;;;;;7.88;80.44;102356.00;2070924;28;31374;-65
2022/04/15 00:17:03;;;;;;;5.93;2.78;;;;;;;7.89;80.52;102363.09;2071713;28;20034;-65
2022/04/15 00:18:05;;;;;;;8.00;2.50;;;;;;;7.87;80.57;102351.53;2071169;28;43035;-64
2022/04/15 00:19:09;;;;;;;5.75;2.30;;;;;;;7.87;80.62;102354.19;2070833;28;45493;-65
2022/04/15 00:20:12;;;;;;;4.82;2.85;;;;;;;7.88;80.85;102352.41;2071092;28;44290;-65
2022/04/15 00:21:14;;;;;;;7.53;3.25;;;;;;;7.87;80.99;102358.63;2070980;28;37327;-65
2022/04/15 00:22:16;;;;;;;4.55;2.00;;;;;;;7.88;80.25;102358.66;2070736;28;43508;-64
2022/04/15 00:23:20;;;;;;;4.07;2.38;;;;;;;7.86;81.01;102349.75;2071014;28;42944;-65
2022/04/15 00:24:22;;;;;;;4.93;2.25;;;;;;;7.86;81.02;102354.16;2071251;28;39857;-64
2022/04/15 00:25:24;;;;;;;4.57;2.53;;;;;;;7.88;80.14;102352.41;2070880;28;43793;-65
2022/04/15 00:26:27;;;;;;;4.03;2.67;;;;;;;7.88;80.56;102353.31;2070272;28;46470;-65
2022/04/15 00:27:29;;;;;;;3.72;2.20;;;;;;;7.90;80.34;102350.69;2070048;28;42134;-65
2022/04/15 00:28:31;;;;;;;5.53;2.33;;;;;;;7.89;80.79;102349.75;2070818;28;44143;-64
2022/04/15 00:29:33;;;;;;;5.95;2.15;;;;;;;7.88;80.29;102345.31;2070860;28;45644;-64
2022/04/15 00:30:34;;;;;;;3.58;2.05;;;;;;;7.87;80.56;102350.63;2070898;28;44213;-66
2022/04/15 00:31:37;;;;;;;4.50;2.20;;;;;;;7.92;80.78;102355.13;2072005;28;20113;-65
2022/04/15 00:32:42;;;;;;;2.60;1.95;;;;;;;7.89;80.56;102347.09;2070960;28;36387;-65
2022/04/15 00:33:44;;;;;;;3.97;2.20;;;;;;;7.90;80.71;102350.69;2071527;28;45261;-65
2022/04/15 00:34:48;;;;;;;4.57;2.22;;;;;;;7.88;80.56;102353.31;2066838;28;46585;-65
2022/04/15 00:35:52;;;;;;;3.50;2.10;;;;;;;7.88;80.93;102358.66;2071968;28;20046;-65
2022/04/15 00:36:54;;;;;;;3.80;1.85;;;;;;;7.90;80.43;102356.00;2070430;28;45054;-65
2022/04/15 00:37:55;;;;;;;3.05;1.67;;;;;;;7.88;80.64;102357.75;2070809;28;42903;-65
2022/04/15 00:38:57;;;;;;;3.85;1.73;;;;;;;7.91;80.57;102348.00;2070438;28;44135;-65
2022/04/15 00:40:02;;;;;;;4.63;1.52;;;;;;;7.91;80.22;102356.00;2070340;28;44096;-65
2022/04/15 00:41:04;;;;;;;2.55;1.42;;;;;;;7.89;80.00;102349.75;2070859;28;42918;-66
2022/04/15 00:42:08;;;;;;;2.38;1.17;;;;;;;7.92;80.68;102344.47;2071070;28;45159;-65
2022/04/15 00:43:10;;;;;;;2.22;1.02;;;;;;;7.94;80.10;102356.03;2070941;28;46108;-65
2022/04/15 00:44:15;;;;;;;3.58;1.25;;;;;;;7.95;80.23;102355.19;2077992;28;43180;-65
2022/04/15 00:45:18;;;;;;;3.08;1.13;;;;;;;7.92;79.85;102348.91;2078091;28;20974;-65
2022/04/15 00:46:20;;;;;;;3.75;1.55;;;;;;;7.90;80.73;102350.69;2071116;28;43593;-66
2022/04/15 00:47:36;;;;;;;3.28;1.30;;;;;;;7.90;80.71;102351.56;2070862;28;43635;-65
2022/04/15 00:48:38;;;;;;;4.75;1.77;;;;;;;7.89;80.47;102355.09;2070782;28;44445;-64
2022/04/15 00:49:40;;;;;;;4.00;1.52;;;;;;;7.91;80.38;102361.34;2070955;28;40294;-64
2022/04/15 00:50:44;;;;;;;2.85;1.75;;;;;;;7.92;80.63;102355.13;2071118;28;45135;-66
2022/04/15 00:51:47;;;;;;;3.38;1.63;;;;;;;7.93;80.54;102356.94;2071384;28;44279;-65
2022/04/15 00:52:53;;;;;;;2.78;1.90;;;;;;;7.93;80.67;102359.59;2072162;28;44265;-65
2022/04/15 00:54:01;;;;;;;2.55;1.60;;;;;;;7.92;80.81;102355.13;2072508;28;45614;-65
2022/04/15 00:55:05;;;;;;;4.80;1.88;;;;;;;7.92;80.79;102364.91;2080886;28;20870;-65
2022/04/15 00:56:09;;;;;;;3.30;1.67;;;;;;;7.92;81.21;102354.25;2071230;28;44414;-66
2022/04/15 00:57:16;;;;;;;3.88;2.00;;;;;;;7.90;81.46;102356.00;2072183;28;42351;-65
2022/04/15 00:58:20;;;;;;;3.97;2.28;;;;;;;7.86;81.26;102352.41;2065138;28;25855;-65
2022/04/15 00:59:24;;;;;;;2.72;1.88;;;;;;;7.87;81.97;102362.19;2071473;28;46062;-65
2022/04/15 01:00:31;;;;;;;4.32;1.88;;;;;;;7.89;81.45;102356.88;2079886;28;42079;-65
2022/04/15 01:01:33;;;;;;;6.05;2.10;;;;;;;7.88;81.37;102353.31;2070258;28;44387;-66
2022/04/15 01:02:36;;;;;;;5.40;2.10;;;;;;;7.88;81.72;102355.06;2063920;28;46033;-65
2022/04/15 01:03:39;;;;;;;4.25;2.03;;;;;;;7.87;81.31;102362.19;2071799;28;45374;-65
2022/04/15 01:04:44;;;;;;;3.88;1.95;;;;;;;7.86;81.83;102360.41;2071012;28;44578;-64
2022/04/15 01:05:47;;;;;;;4.60;1.80;;;;;;;7.88;81.18;102361.31;2071585;28;41921;-65
2022/04/15 01:06:50;;;;;;;6.28;1.80;;;;;;;7.87;81.33;102363.97;2071335;28;43937;-65
2022/04/15 01:07:57;;;;;;;3.78;2.13;;;;;;;7.86;81.39;102359.50;2064137;28;43449;-65
2022/04/15 01:09:01;;;;;;;4.32;1.88;;;;;;;7.86;81.46;102352.41;2071538;28;44900;-65
2022/04/15 01:10:10;;;;;;;3.33;2.08;;;;;;;7.85;81.04;102363.94;2072052;28;46163;-65
2022/04/15 01:11:17;;;;;;;4.15;1.60;;;;;;;7.83;81.31;102360.38;2065010;28;41960;-65
2022/04/15 01:12:22;;;;;;;3.83;2.00;;;;;;;7.83;81.78;102355.94;2071544;28;45434;-65
2022/04/15 01:13:26;;;;;;;4.82;2.00;;;;;;;7.85;81.41;102361.28;2072512;28;44424;-66
2022/04/15 01:14:30;;;;;;;4.38;2.33;;;;;;;7.88;81.24;102363.06;2072078;28;44016;-65
2022/04/15 01:15:33;;;;;;;4.38;1.98;;;;;;;7.88;82.15;102347.06;2072387;28;43755;-65
2022/04/15 01:16:35;;;;;;;4.05;1.73;;;;;;;7.89;81.16;102360.44;2071756;28;42137;-65
2022/04/15 01:17:37;;;;;;;5.90;1.83;;;;;;;7.90;81.30;102348.91;2071920;28;44257;-65
2022/04/15 01:18:39;;;;;;;2.58;1.58;;;;;;;7.90;81.13;102354.22;2071964;28;44404;-66
2022/04/15 01:19:41;;;;;;;5.93;1.88;;;;;;;7.89;81.50;102347.09;2073113;28;20125;-66
2022/04/15 01:20:46;;;;;;;5.78;1.83;;;;;;;7.87;81.53;102351.53;2071656;28;42754;-66
2022/04/15 01:21:56;;;;;;;3.92;1.88;;;;;;;7.88;81.94;102358.66;2071422;28;44398;-66
2022/04/15 01:23:11;;;;;;;3.83;2.05;;;;;;;7.89;81.08;102352.44;2071399;28;45378;-65
2022/04/15 01:24:12;;;;;;;4.25;1.95;;;;;;;7.88;82.30;102358.66;2072187;28;46673;-65
2022/04/15 01:25:17;;;;;;;5.68;2.08;;;;;;;7.89;82.57;102356.88;2072011;28;41117;-64
2022/04/15 01:26:19;;;;;;;3.55;2.20;;;;;;;7.86;82.38;102355.09;2071021;28;44446;-65
2022/04/15 01:27:35;;;;;;;5.35;2.20;;;;;;;7.84;81.87;102354.16;2071940;28;34476;-66
2022/04/15 01:28:36;;;;;;;6.13;2.20;;;;;;;7.86;82.40;102355.09;2071217;28;44098;-65
2022/04/15 01:29:40;;;;;;;5.82;2.33;;;;;;;7.86;81.92;102365.75;2071682;28;45168;-65
2022/04/15 01:30:45;;;;;;;7.28;2.83;;;;;;;7.84;82.66;102363.06;2072367;28;43892;-65
2022/04/15 01:31:46;;;;;;;6.65;2.55;;;;;;;7.85;82.75;102369.28;2072246;28;46510;-65
2022/04/15 01:32:49;;;;;;;6.03;2.78;;;;;;;7.83;82.92;102365.72;2072174;28;46154;-65
2022/04/15 01:33:53;;;;;;;5.30;2.28;;;;;;;7.84;82.55;102367.47;2073053;28;20116;-65
2022/04/15 01:34:55;;;;;;;6.45;3.05;;;;;;;7.84;82.47;102359.47;2071907;28;46536;-65
2022/04/15 01:35:57;;;;;;;4.43;2.70;;;;;;;7.84;82.04;102362.16;2072296;28;42084;-65
2022/04/15 01:37:00;;;;;;;6.80;2.53;;;;;;;7.85;82.66;102369.28;2079422;28;45785;-65
2022/04/15 01:38:06;;;;;;;3.88;2.72;;;;;;;7.84;82.94;102362.16;2079399;28;44252;-65
2022/04/15 01:39:10;;;;;;;6.13;2.75;;;;;;;7.84;82.51;102368.41;2072498;28;38981;-65
2022/04/15 01:40:17;;;;;;;6.93;2.70;;;;;;;7.82;83.22;102367.50;2072627;28;20128;-65
2022/04/15 01:41:19;;;;;;;6.43;3.10;;;;;;;7.83;82.71;102371.03;2071865;28;42453;-65
2022/04/15 01:42:23;;;;;;;6.43;2.90;;;;;;;7.81;83.31;102370.13;2073596;28;20054;-65
2022/04/15 01:43:25;;;;;;;5.93;3.15;;;;;;;7.81;82.97;102367.47;2071947;28;46118;-64
2022/04/15 01:44:27;;;;;;;8.93;3.22;;;;;;;7.82;83.30;102374.56;2072625;28;37817;-65
2022/04/15 01:45:28;;;;;;;7.75;3.28;;;;;;;7.81;83.05;102379.03;2071919;28;44140;-65
2022/04/15 01:46:30;;;;;;;8.30;4.20;;;;;;;7.77;83.49;102376.28;2072739;28;33219;-65
2022/04/15 01:47:32;;;;;;;7.65;4.60;;;;;;;7.76;82.81;102374.50;2071933;28;44637;-65
2022/04/15 01:48:34;;;;;;;8.75;4.70;;;;;;;7.72;83.17;102370.03;2071757;28;44356;-65
2022/04/15 01:49:38;;;;;;;6.88;4.30;;;;;;;7.74;83.21;102381.59;2072073;28;42325;-64
2022/04/15 01:50:41;;;;;;;7.78;4.85;;;;;;;7.70;83.38;102380.66;2072367;28;45124;-65
2022/04/15 01:51:46;;;;;;;7.10;4.20;;;;;;;7.70;83.18;102383.34;2071505;28;44379;-64
2022/04/15 01:52:49;;;;;;;10.15;5.13;;;;;;;7.67;83.17;102380.63;2072046;28;44440;-65
2022/04/15 01:53:53;;;;;;;6.88;4.88;;;;;;;7.65;83.16;102385.03;2071891;28;44980;-65
2022/04/15 01:54:54;;;;;;;7.45;4.10;;;;;;;7.67;83.40;102385.06;2072184;28;43374;-65
2022/04/15 01:55:56;;;;;;;7.38;4.57;;;;;;;7.63;83.25;102385.03;2072368;28;34786;-65
2022/04/15 01:56:58;;;;;;;6.88;4.60;;;;;;;7.62;82.84;102387.66;2072156;28;45624;-65
2022/04/15 01:58:00;;;;;;;6.57;5.10;;;;;;;7.59;83.13;102388.53;2071529;28;43699;-65
2022/04/15 01:59:01;;;;;;;7.20;5.03;;;;;;;7.62;83.17;102387.66;2071771;28;46122;-65
2022/04/15 02:00:04;;;;;;;7.60;4.15;;;;;;;7.62;82.71;102391.22;2071672;28;41550;-66
2022/04/15 02:01:12;;;;;;;8.70;5.03;;;;;;;7.56;82.90;102393.81;2072866;28;20940;-65
2022/04/15 02:02:14;;;;;;;9.80;5.10;;;;;;;7.56;82.76;102395.59;2071487;28;46081;-65
2022/04/15 02:03:16;;;;;;;7.28;4.60;;;;;;;7.54;83.03;102395.56;2072239;28;45378;-65
2022/04/15 02:04:18;;;;;;;8.35;4.93;;;;;;;7.53;82.96;102393.78;2071217;28;34678;-65
2022/04/15 02:05:19;;;;;;;8.63;5.13;;;;;;;7.54;83.12;102392.91;2071889;28;43449;-65
2022/04/15 02:06:21;;;;;;;9.93;5.47;;;;;;;7.54;83.20;102398.25;2071541;28;44128;-65
2022/04/15 02:07:25;;;;;;;8.32;5.20;;;;;;;7.54;82.91;102398.25;2071465;28;46167;-65
2022/04/15 02:08:27;;;;;;;8.93;4.60;;;;;;;7.57;83.39;102403.63;2071958;28;42314;-65
2022/04/15 02:09:29;;;;;;;7.93;5.15;;;;;;;7.54;83.32;102400.91;2071970;28;41862;-65
2022/04/15 02:10:31;;;;;;;7.80;5.28;;;;;;;7.53;83.32;102404.44;2071697;28;45948;-65
2022/04/15 02:11:34;;;;;;;12.60;6.18;;;;;;;7.52;83.31;102400.00;2071336;28;45288;-64
2022/04/15 02:12:36;;;;;;;8.30;5.97;;;;;;;7.52;83.18;102401.75;2071183;28;46474;-65
2022/04/15 02:13:38;;;;;;;7.53;5.80;;;;;;;7.51;83.78;102406.19;2071651;28;42321;-65
2022/04/15 02:14:39;;;;;;;7.93;5.43;;;;;;;7.51;83.35;102406.19;2071740;28;44432;-64
2022/04/15 02:15:41;;;;;;;9.18;5.38;;;;;;;7.51;83.02;102403.53;2070911;28;46172;-65
2022/04/15 02:16:43;;;;;;;8.50;5.38;;;;;;;7.51;82.82;102405.28;2071781;28;20065;-65
2022/04/15 02:17:47;;;;;;;8.95;4.75;;;;;;;7.50;83.10;102406.16;2072879;28;20152;-65
2022/04/15 02:18:49;;;;;;;8.45;5.40;;;;;;;7.49;82.72;102405.28;2071622;28;43662;-65
2022/04/15 02:19:52;;;;;;;8.02;5.70;;;;;;;7.43;83.39;102410.53;2071789;28;44752;-64
2022/04/15 02:20:54;;;;;;;8.68;5.60;;;;;;;7.40;83.15;102408.69;2071361;28;44583;-65
2022/04/15 02:21:55;;;;;;;8.35;5.55;;;;;;;7.40;83.06;102407.81;2071915;28;43960;-64
2022/04/15 02:22:57;;;;;;;7.30;4.75;;;;;;;7.40;82.97;102408.69;2071681;28;44941;-65
2022/04/15 02:23:59;;;;;;;8.15;5.32;;;;;;;7.42;82.92;102411.41;2071639;28;41991;-65
2022/04/15 02:25:01;;;;;;;8.48;5.40;;;;;;;7.42;82.78;102411.41;2071796;28;44284;-65
2022/04/15 02:26:02;;;;;;;8.00;5.30;;;;;;;7.39;82.66;102414.00;2071847;28;45544;-65
2022/04/15 02:27:04;;;;;;;6.75;5.18;;;;;;;7.39;82.47;102412.25;2072240;28;45119;-65
2022/04/15 02:28:06;;;;;;;8.43;5.18;;;;;;;7.39;82.50;102414.00;2071859;28;44228;-65
2022/04/15 02:29:08;;;;;;;7.25;4.90;;;;;;;7.39;82.48;102406.00;2071964;28;45767;-65
2022/04/15 02:30:19;;;;;;;7.38;4.97;;;;;;;7.38;82.55;102418.44;2072197;28;44060;-65
2022/04/15 02:31:23;;;;;;;6.38;4.88;;;;;;;7.36;82.60;102412.22;2071663;28;46207;-65
2022/04/15 02:32:25;;;;;;;7.57;5.13;;;;;;;7.36;82.82;102417.53;2071285;28;43815;-65
2022/04/15 02:33:27;;;;;;;7.82;4.90;;;;;;;7.38;82.80;102415.78;2071624;28;45388;-65
2022/04/15 02:34:29;;;;;;;6.30;4.55;;;;;;;7.35;82.58;102412.19;2071731;28;46184;-66
2022/04/15 02:35:30;;;;;;;6.43;4.80;;;;;;;7.36;82.30;102419.31;2071885;28;45828;-64
2022/04/15 02:36:32;;;;;;;9.77;5.13;;;;;;;7.31;82.24;102419.22;2071846;28;44778;-65
2022/04/15 02:37:34;;;;;;;7.82;5.00;;;;;;;7.31;82.17;102429.00;2071243;28;44607;-66
2022/04/15 02:38:35;;;;;;;6.45;5.00;;;;;;;7.29;82.23;102417.44;2071459;28;44111;-65
2022/04/15 02:39:37;;;;;;;6.45;4.15;;;;;;;7.24;82.43;102420.91;2072021;28;37322;-65
2022/04/15 02:40:39;;;;;;;7.55;4.57;;;;;;;7.22;82.17;102425.31;2071666;28;45254;-65
2022/04/15 02:41:42;;;;;;;5.53;3.80;;;;;;;7.21;81.85;102426.22;2070853;28;45529;-65
2022/04/15 02:42:45;;;;;;;6.20;3.55;;;;;;;7.24;81.46;102426.22;2063727;28;37944;-65
2022/04/15 02:43:52;;;;;;;5.63;4.05;;;;;;;7.16;81.18;102425.25;2071162;28;45570;-65
2022/04/15 02:44:53;;;;;;;5.00;3.65;;;;;;;7.18;81.03;102425.28;2071699;28;44425;-65
2022/04/15 02:45:57;;;;;;;7.38;4.50;;;;;;;7.18;81.42;102434.16;2070687;28;45867;-65
2022/04/15 02:46:59;;;;;;;5.07;3.53;;;;;;;7.21;81.46;102434.19;2063490;28;46532;-65
2022/04/15 02:48:02;;;;;;;6.22;3.97;;;;;;;7.23;81.52;102432.44;2071742;28;39638;-65
2022/04/15 02:49:04;;;;;;;5.13;4.20;;;;;;;7.19;81.24;102430.59;2079318;28;28017;-65
2022/04/15 02:50:07;;;;;;;4.57;3.95;;;;;;;7.19;81.60;102435.91;2071353;28;44944;-64
2022/04/15 02:51:08;;;;;;;6.38;4.60;;;;;;;7.18;81.69;102438.59;2071829;28;43409;-65
2022/04/15 02:52:10;;;;;;;8.20;4.85;;;;;;;7.17;81.83;102440.34;2070722;28;43097;-65
2022/04/15 02:53:12;;;;;;;8.45;4.68;;;;;;;7.16;81.69;102434.97;2071756;28;45802;-65
2022/04/15 02:54:13;;;;;;;6.75;4.63;;;;;;;7.16;82.19;102438.56;2071702;28;44762;-65
2022/04/15 02:55:16;;;;;;;6.68;5.07;;;;;;;7.14;82.00;102436.72;2071522;28;46646;-65
2022/04/15 02:56:17;;;;;;;6.88;4.70;;;;;;;7.10;82.19;102440.22;2071214;28;43467;-65
2022/04/15 02:57:19;;;;;;;6.10;4.78;;;;;;;7.05;82.43;102437.47;2071459;28;45409;-65
2022/04/15 02:58:21;;;;;;;8.15;4.90;;;;;;;7.03;82.61;102441.88;2071631;28;45986;-66
2022/04/15 02:59:23;;;;;;;7.07;4.97;;;;;;;6.99;82.82;102432.94;2071527;28;45388;-64
2022/04/15 03:00:24;;;;;;;5.60;4.30;;;;;;;7.00;82.81;102437.41;2071053;28;40898;-65
2022/04/15 03:01:26;;;;;;;8.88;5.30;;;;;;;6.98;83.38;102435.59;2071480;28;43266;-65
2022/04/15 03:02:32;;;;;;;7.88;5.03;;;;;;;6.97;82.99;102433.81;2071128;28;44461;-65
2022/04/15 03:03:34;;;;;;;6.53;4.95;;;;;;;6.95;83.00;102441.78;2072422;28;25971;-64
2022/04/15 03:04:36;;;;;;;5.97;4.75;;;;;;;6.92;82.87;102433.72;2071163;28;43972;-65
2022/04/15 03:05:42;;;;;;;7.60;4.28;;;;;;;6.94;83.17;102439.97;2071828;28;46672;-65
2022/04/15 03:06:43;;;;;;;8.35;5.75;;;;;;;6.88;83.65;102440.75;2070695;28;43525;-65
2022/04/15 03:07:45;;;;;;;7.90;5.43;;;;;;;6.82;83.83;102435.34;2070673;28;45628;-65
2022/04/15 03:08:46;;;;;;;8.15;5.32;;;;;;;6.78;84.32;102440.59;2071739;28;44901;-65
2022/04/15 03:09:48;;;;;;;9.23;5.88;;;;;;;6.75;84.64;102449.44;2071315;28;44785;-65
2022/04/15 03:10:50;;;;;;;10.77;6.60;;;;;;;6.77;85.00;102452.13;2071573;28;44926;-66
2022/04/15 03:11:53;;;;;;;11.75;6.18;;;;;;;6.76;84.63;102451.19;2072742;28;20896;-65
2022/04/15 03:12:54;;;;;;;9.88;6.43;;;;;;;6.71;84.56;102444.91;2070678;28;45447;-65
2022/04/15 03:13:56;;;;;;;9.73;6.22;;;;;;;6.69;84.89;102443.97;2071051;28;46673;-65
2022/04/15 03:14:58;;;;;;;13.10;6.47;;;;;;;6.72;85.17;102443.16;2071032;28;43368;-65
2022/04/15 03:16:00;;;;;;;11.20;7.07;;;;;;;6.70;85.09;102451.13;2071176;28;45539;-65
2022/04/15 03:17:01;;;;;;;11.13;7.20;;;;;;;6.70;84.89;102461.75;2071529;28;46606;-65
2022/04/15 03:18:04;;;;;;;11.05;7.10;;;;;;;6.69;85.44;102447.56;2071555;28;45262;-64
2022/04/15 03:19:05;;;;;;;10.80;6.68;;;;;;;6.70;85.08;102445.78;2071201;28;45131;-65
2022/04/15 03:20:08;;;;;;;11.65;7.50;;;;;;;6.69;85.20;102451.97;2072288;28;20131;-65
2022/04/15 03:21:10;;;;;;;13.05;6.75;;;;;;;6.69;85.56;102449.31;2070581;28;37318;-65
2022/04/15 03:22:12;;;;;;;11.38;7.47;;;;;;;6.67;85.97;102448.38;2070974;28;45321;-65
2022/04/15 03:23:13;;;;;;;10.25;7.15;;;;;;;6.65;85.96;102447.47;2071575;28;44961;-65
2022/04/15 03:24:15;;;;;;;11.88;7.82;;;;;;;6.65;85.68;102450.13;2071306;28;44174;-65
2022/04/15 03:25:17;;;;;;;10.95;7.68;;;;;;;6.64;85.72;102449.25;2070776;28;43207;-65
2022/04/15 03:26:21;;;;;;;12.43;7.78;;;;;;;6.64;85.93;102446.59;2070702;28;44417;-65
2022/04/15 03:27:25;;;;;;;13.10;7.70;;;;;;;6.61;86.14;102450.94;2072590;28;20915;-65
2022/04/15 03:28:27;;;;;;;11.93;8.00;;;;;;;6.64;86.41;102458.97;2071462;28;45058;-64
2022/04/15 03:29:28;;;;;;;14.10;7.93;;;;;;;6.61;86.64;102453.63;2071411;28;44802;-65
2022/04/15 03:30:30;;;;;;;11.82;7.85;;;;;;;6.61;86.24;102456.28;2071653;28;37770;-65
2022/04/15 03:31:32;;;;;;;14.20;7.85;;;;;;;6.62;86.70;102458.06;2071483;28;44529;-65
2022/04/15 03:32:34;;;;;;;12.77;8.25;;;;;;;6.59;86.86;102460.69;2071330;28;45815;-65
2022/04/15 03:33:35;;;;;;;11.73;8.02;;;;;;;6.60;86.99;102466.00;2071813;28;43977;-65
2022/04/15 03:34:37;;;;;;;14.35;8.68;;;;;;;6.57;86.92;102462.38;2071170;28;45279;-65
2022/04/15 03:35:39;;;;;;;10.30;7.47;;;;;;;6.56;87.04;102465.94;2071165;28;43458;-66
2022/04/15 03:36:42;;;;;;;12.57;7.35;;;;;;;6.51;87.46;102463.19;2070689;28;42462;-65
2022/04/15 03:37:44;;;;;;;11.00;7.10;;;;;;;6.49;87.21;102460.47;2070582;28;44313;-65
2022/04/15 03:38:46;;;;;;;9.07;7.13;;;;;;;6.49;87.46;102464.91;2071452;28;43357;-65
2022/04/15 03:39:49;;;;;;;12.07;6.35;;;;;;;6.44;86.73;102459.53;2071008;28;45592;-65
2022/04/15 03:40:51;;;;;;;7.43;5.47;;;;;;;6.45;86.62;102455.09;2071781;28;20042;-65
2022/04/15 03:41:52;;;;;;;5.80;4.32;;;;;;;6.47;86.25;102454.25;2071175;28;42757;-65
2022/04/15 03:42:56;;;;;;;6.10;4.40;;;;;;;6.50;86.43;102464.06;2071227;28;46383;-65
2022/04/15 03:43:57;;;;;;;10.85;5.18;;;;;;;6.47;85.57;102451.59;2072079;28;26347;-64
2022/04/15 03:45:03;;;;;;;6.15;4.82;;;;;;;6.48;85.76;102461.38;2071345;28;44279;-65
2022/04/15 03:46:04;;;;;;;6.75;4.80;;;;;;;6.49;86.56;102470.25;2071178;28;44731;-65
2022/04/15 03:47:06;;;;;;;7.70;5.38;;;;;;;6.49;85.72;102457.81;2071079;28;46490;-65
2022/04/15 03:48:08;;;;;;;7.95;5.18;;;;;;;6.49;85.93;102460.47;2071472;28;45265;-65
2022/04/15 03:49:10;;;;;;;8.10;5.22;;;;;;;6.50;85.89;102464.94;2071436;28;43702;-65
2022/04/15 03:50:13;;;;;;;7.75;4.60;;;;;;;6.53;85.65;102469.41;2070963;28;44013;-65
2022/04/15 03:51:15;;;;;;;8.02;4.57;;;;;;;6.53;86.44;102465.88;2071583;28;30631;-65
2022/04/15 03:52:17;;;;;;;7.38;4.10;;;;;;;6.56;85.75;102463.28;2071024;28;45478;-65
2022/04/15 03:53:20;;;;;;;6.05;4.13;;;;;;;6.58;85.63;102464.19;2071182;28;46230;-65
2022/04/15 03:54:22;;;;;;;7.22;4.68;;;;;;;6.58;86.30;102462.41;2071236;28;42160;-65
2022/04/15 03:55:26;;;;;;;8.70;4.95;;;;;;;6.56;85.39;102465.94;2071524;28;44249;-65
2022/04/15 03:56:30;;;;;;;8.20;4.10;;;;;;;6.55;86.08;102465.06;2071073;28;46277;-64
2022/04/15 03:57:32;;;;;;;5.97;4.38;;;;;;;6.54;86.08;102467.69;2071211;28;43533;-66
2022/04/15 03:58:37;;;;;;;5.88;4.07;;;;;;;6.55;86.20;102464.13;2070949;28;45048;-65
2022/04/15 03:59:38;;;;;;;8.73;4.63;;;;;;;6.54;86.04;102470.34;2071105;28;45799;-65
2022/04/15 04:00:40;;;;;;;6.00;4.55;;;;;;;6.50;86.17;102469.38;2070963;28;43205;-65
2022/04/15 04:01:42;;;;;;;4.80;4.20;;;;;;;6.52;86.43;102474.75;2070241;28;47337;-64
2022/04/15 04:02:49;;;;;;;6.47;4.93;;;;;;;6.50;85.85;102472.94;2070901;28;42219;-65
2022/04/15 04:03:53;;;;;;;7.47;5.03;;;;;;;6.49;85.99;102465.81;2071601;28;45311;-65
2022/04/15 04:04:55;;;;;;;10.30;5.05;;;;;;;6.52;86.15;102466.75;2070117;28;44388;-65
2022/04/15 04:05:58;;;;;;;6.05;4.75;;;;;;;6.52;86.53;102472.97;2071369;28;43731;-65
2022/04/15 04:07:00;;;;;;;5.53;4.90;;;;;;;6.53;86.30;102468.53;2071461;28;24607;-65
2022/04/15 04:08:02;;;;;;;5.40;4.45;;;;;;;6.54;85.74;102475.66;2071539;28;31744;-65
2022/04/15 04:09:04;;;;;;;6.75;4.15;;;;;;;6.55;86.01;102478.34;2078465;28;42838;-65
2022/04/15 04:10:06;;;;;;;6.45;4.55;;;;;;;6.53;86.24;102468.53;2078583;28;44796;-65
2022/04/15 04:11:08;;;;;;;6.43;4.50;;;;;;;6.52;85.92;102478.28;2070854;28;44231;-66
2022/04/15 04:12:10;;;;;;;5.07;4.53;;;;;;;6.53;85.80;102480.06;2070937;28;44230;-66
2022/04/15 04:13:11;;;;;;;6.47;4.82;;;;;;;6.53;86.38;102479.19;2071105;28;43748;-65
2022/04/15 04:14:13;;;;;;;6.43;4.45;;;;;;;6.55;86.35;102480.09;2071178;28;46115;-65
2022/04/15 04:15:16;;;;;;;6.57;4.70;;;;;;;6.55;86.50;102481.00;2070740;28;45763;-65
2022/04/15 04:16:18;;;;;;;9.30;5.13;;;;;;;6.55;86.54;102477.44;2071646;28;42056;-65
2022/04/15 04:17:20;;;;;;;7.40;4.53;;;;;;;6.50;86.15;102478.25;2070855;28;44475;-65
2022/04/15 04:18:21;;;;;;;6.93;4.97;;;;;;;6.52;86.12;102482.72;2079102;28;41415;-65
2022/04/15 04:19:26;;;;;;;6.78;4.57;;;;;;;6.54;86.26;102475.66;2078449;28;43485;-65
2022/04/15 04:20:30;;;;;;;6.72;4.63;;;;;;;6.53;86.54;102476.50;2070740;28;46320;-65
2022/04/15 04:21:33;;;;;;;6.82;4.68;;;;;;;6.53;86.86;102474.75;2070658;28;43283;-65
2022/04/15 04:22:36;;;;;;;7.75;4.90;;;;;;;6.52;86.42;102480.06;2070726;28;44551;-65
2022/04/15 04:23:39;;;;;;;6.95;4.55;;;;;;;6.52;86.56;102472.97;2070511;28;45747;-65
2022/04/15 04:24:41;;;;;;;7.28;4.82;;;;;;;6.54;86.28;102481.88;2071113;28;32245;-65
2022/04/15 04:25:43;;;;;;;6.45;4.53;;;;;;;6.55;85.92;102477.44;2070694;28;46096;-65
2022/04/15 04:26:44;;;;;;;5.35;4.20;;;;;;;6.57;86.00;102475.69;2070741;28;43583;-66
2022/04/15 04:27:46;;;;;;;6.20;4.25;;;;;;;6.57;85.72;102481.94;2070714;28;45717;-65
2022/04/15 04:28:48;;;;;;;6.32;4.78;;;;;;;6.56;86.06;102481.91;2071388;28;36528;-65
2022/04/15 04:29:50;;;;;;;6.38;4.28;;;;;;;6.57;86.68;102481.00;2070718;28;44273;-65
2022/04/15 04:30:52;;;;;;;5.60;4.18;;;;;;;6.58;86.14;102488.16;2071096;28;45137;-65
2022/04/15 04:31:57;;;;;;;6.45;4.55;;;;;;;6.58;86.19;102490.81;2071030;28;42623;-65
2022/04/15 04:32:59;;;;;;;5.57;4.63;;;;;;;6.56;86.23;102484.56;2071063;28;45311;-65
2022/04/15 04:34:01;;;;;;;5.22;4.47;;;;;;;6.56;86.09;102493.44;2071442;28;20074;-65
2022/04/15 04:35:07;;;;;;;8.20;4.93;;;;;;;6.57;86.23;102491.66;2070805;28;45625;-65
2022/04/15 04:36:11;;;;;;;8.88;4.93;;;;;;;6.56;86.63;102492.53;2072325;28;20124;-65
2022/04/15 04:37:15;;;;;;;7.65;4.68;;;;;;;6.58;86.49;102497.03;2071363;28;42612;-65
2022/04/15 04:38:17;;;;;;;8.20;4.88;;;;;;;6.59;86.57;102501.47;2071106;28;44003;-65
2022/04/15 04:39:25;;;;;;;6.45;4.80;;;;;;;6.57;86.35;102496.97;2070966;28;45667;-65
2022/04/15 04:40:27;;;;;;;7.22;4.68;;;;;;;6.58;86.48;102499.69;2070769;28;42908;-65
2022/04/15 04:41:29;;;;;;;7.47;4.82;;;;;;;6.59;86.18;102496.16;2069883;28;45246;-65
2022/04/15 04:42:31;;;;;;;5.85;4.30;;;;;;;6.61;86.19;102493.53;2070228;28;46004;-65
2022/04/15 04:43:32;;;;;;;8.32;4.57;;;;;;;6.61;86.15;102502.41;2071161;28;42935;-65
2022/04/15 04:44:37;;;;;;;6.72;4.85;;;;;;;6.59;86.30;102501.47;2070538;28;46368;-65
2022/04/15 04:45:39;;;;;;;7.45;4.90;;;;;;;6.61;86.62;102504.19;2071171;28;43350;-65
2022/04/15 04:46:41;;;;;;;5.20;4.63;;;;;;;6.60;86.55;102502.38;2070176;28;45787;-65
2022/04/15 04:47:46;;;;;;;6.50;4.93;;;;;;;6.62;86.78;102503.28;2071888;28;20046;-65
2022/04/15 04:48:48;;;;;;;8.65;5.38;;;;;;;6.61;86.83;102501.53;2070114;28;45246;-66
2022/04/15 04:49:50;;;;;;;7.13;4.90;;;;;;;6.62;86.88;102503.28;2070814;28;28107;-66
2022/04/15 04:50:51;;;;;;;9.95;5.20;;;;;;;6.62;86.52;102504.22;2078464;28;43680;-65
2022/04/15 04:51:54;;;;;;;7.95;5.70;;;;;;;6.62;86.38;102512.19;2070918;28;24448;-65
2022/04/15 04:52:56;;;;;;;7.60;4.85;;;;;;;6.64;86.55;102506.88;2070053;28;45471;-63
2022/04/15 04:53:57;;;;;;;5.30;4.70;;;;;;;6.65;86.38;102517.56;2070461;28;44199;-65
2022/04/15 04:54:59;;;;;;;5.63;5.13;;;;;;;6.67;86.00;102514.94;2069949;28;46280;-65